sensor_id;sensor_type;location;lat;lon;timestamp;P1;durP1;ratioP1;P2;durP2;ratioP2
20671;SDS011;10495;50.922;4.760;2023-08-20T00:00:10;8.48;;;2.97;;
20671;SDS011;10495;50.922;4.760;2023-08-20T00:02:37;6.50;;;2.63;;
20671;SDS011;10495;50.922;4.760;2023-08-20T00:05:03;4.80;;;2.17;;
20671;SDS011;10495;50.922;4.760;2023-08-20T00:07:30;5.63;;;2.40;;
20671;SDS011;10495;50.922;4.760;2023-08-20T00:09:56;5.17;;;2.27;;
20671;SDS011;10495;50.922;4.760;2023-08-20T00:12:22;5.75;;;2.50;;
20671;SDS011;10495;50.922;4.760;2023-08-20T00:15:06;4.73;;;2.40;;
20671;SDS011;10495;50.922;4.760;2023-08-20T00:17:33;7.00;;;2.40;;
20671;SDS011;10495;50.922;4.760;2023-08-20T00:20:01;3.88;;;2.40;;
20671;SDS011;10495;50.922;4.760;2023-08-20T00:22:34;3.95;;;2.17;;
20671;SDS011;10495;50.922;4.760;2023-08-20T00:25:00;6.93;;;2.38;;
20671;SDS011;10495;50.922;4.760;2023-08-20T00:27:26;3.77;;;2.43;;
20671;SDS011;10495;50.922;4.760;2023-08-20T00:29:51;4.78;;;2.00;;
20671;SDS011;10495;50.922;4.760;2023-08-20T00:32:17;3.83;;;2.40;;
20671;SDS011;10495;50.922;4.760;2023-08-20T00:34:43;2.97;;;1.95;;
20671;SDS011;10495;50.922;4.760;2023-08-20T00:37:09;2.70;;;2.15;;
20671;SDS011;10495;50.922;4.760;2023-08-20T00:39:34;5.20;;;2.33;;
20671;SDS011;10495;50.922;4.760;2023-08-20T00:42:00;5.00;;;2.20;;
20671;SDS011;10495;50.922;4.760;2023-08-20T00:44:26;4.82;;;2.15;;
20671;SDS011;10495;50.922;4.760;2023-08-20T00:46:51;3.95;;;2.38;;
20671;SDS011;10495;50.922;4.760;2023-08-20T00:49:18;7.93;;;2.77;;
20671;SDS011;10495;50.922;4.760;2023-08-20T00:51:44;3.67;;;2.17;;
20671;SDS011;10495;50.922;4.760;2023-08-20T00:54:10;3.67;;;2.20;;
20671;SDS011;10495;50.922;4.760;2023-08-20T00:56:36;4.78;;;2.10;;
20671;SDS011;10495;50.922;4.760;2023-08-20T00:59:03;2.50;;;1.85;;
20671;SDS011;10495;50.922;4.760;2023-08-20T01:01:30;2.78;;;1.95;;
20671;SDS011;10495;50.922;4.760;2023-08-20T01:03:56;4.75;;;2.03;;
20671;SDS011;10495;50.922;4.760;2023-08-20T01:08:54;4.03;;;1.98;;
20671;SDS011;10495;50.922;4.760;2023-08-20T01:11:29;5.28;;;2.38;;
20671;SDS011;10495;50.922;4.760;2023-08-20T01:13:58;6.32;;;2.55;;
20671;SDS011;10495;50.922;4.760;2023-08-20T01:16:26;3.97;;;2.70;;
20671;SDS011;10495;50.922;4.760;2023-08-20T01:18:51;3.67;;;2.40;;
20671;SDS011;10495;50.922;4.760;2023-08-20T01:30:07;5.13;;;2.20;;
20671;SDS011;10495;50.922;4.760;2023-08-20T01:32:34;4.80;;;2.73;;
20671;SDS011;10495;50.922;4.760;2023-08-20T01:35:01;3.78;;;2.00;;
20671;SDS011;10495;50.922;4.760;2023-08-20T01:37:28;5.60;;;2.40;;
20671;SDS011;10495;50.922;4.760;2023-08-20T01:39:53;3.43;;;2.20;;
20671;SDS011;10495;50.922;4.760;2023-08-20T01:42:19;6.20;;;2.10;;
20671;SDS011;10495;50.922;4.760;2023-08-20T01:44:44;6.90;;;2.20;;
20671;SDS011;10495;50.922;4.760;2023-08-20T01:47:10;4.27;;;2.63;;
20671;SDS011;10495;50.922;4.760;2023-08-20T01:49:36;3.53;;;2.50;;
20671;SDS011;10495;50.922;4.760;2023-08-20T01:52:01;3.47;;;2.23;;
20671;SDS011;10495;50.922;4.760;2023-08-20T01:54:27;2.40;;;2.13;;
20671;SDS011;10495;50.922;4.760;2023-08-20T01:56:53;4.80;;;2.33;;
20671;SDS011;10495;50.922;4.760;2023-08-20T01:59:21;5.47;;;2.73;;
20671;SDS011;10495;50.922;4.760;2023-08-20T02:01:47;5.40;;;2.60;;
20671;SDS011;10495;50.922;4.760;2023-08-20T02:04:12;4.50;;;2.40;;
20671;SDS011;10495;50.922;4.760;2023-08-20T02:06:38;4.60;;;2.25;;
20671;SDS011;10495;50.922;4.760;2023-08-20T02:09:03;2.67;;;2.10;;
20671;SDS011;10495;50.922;4.760;2023-08-20T02:11:29;3.75;;;2.40;;
20671;SDS011;10495;50.922;4.760;2023-08-20T02:13:58;2.70;;;2.37;;
20671;SDS011;10495;50.922;4.760;2023-08-20T02:16:23;5.67;;;2.60;;
20671;SDS011;10495;50.922;4.760;2023-08-20T02:18:49;4.63;;;2.67;;
20671;SDS011;10495;50.922;4.760;2023-08-20T02:21:14;4.78;;;2.80;;
20671;SDS011;10495;50.922;4.760;2023-08-20T02:23:40;5.10;;;2.17;;
20671;SDS011;10495;50.922;4.760;2023-08-20T02:26:06;5.87;;;2.40;;
20671;SDS011;10495;50.922;4.760;2023-08-20T02:28:31;4.97;;;2.37;;
20671;SDS011;10495;50.922;4.760;2023-08-20T02:30:57;2.53;;;1.97;;
20671;SDS011;10495;50.922;4.760;2023-08-20T02:33:25;3.22;;;1.77;;
20671;SDS011;10495;50.922;4.760;2023-08-20T02:35:50;2.75;;;1.92;;
20671;SDS011;10495;50.922;4.760;2023-08-20T02:38:16;1.80;;;1.70;;
20671;SDS011;10495;50.922;4.760;2023-08-20T02:40:41;4.47;;;2.28;;
20671;SDS011;10495;50.922;4.760;2023-08-20T02:43:07;1.97;;;1.43;;
20671;SDS011;10495;50.922;4.760;2023-08-20T02:45:38;4.07;;;1.97;;
20671;SDS011;10495;50.922;4.760;2023-08-20T02:48:06;3.25;;;2.03;;
20671;SDS011;10495;50.922;4.760;2023-08-20T02:50:31;2.67;;;2.10;;
20671;SDS011;10495;50.922;4.760;2023-08-20T02:52:57;2.78;;;1.88;;
20671;SDS011;10495;50.922;4.760;2023-08-20T02:55:23;3.40;;;2.10;;
20671;SDS011;10495;50.922;4.760;2023-08-20T02:57:48;3.60;;;2.47;;
20671;SDS011;10495;50.922;4.760;2023-08-20T03:00:14;4.40;;;1.70;;
20671;SDS011;10495;50.922;4.760;2023-08-20T03:02:40;3.20;;;1.73;;
20671;SDS011;10495;50.922;4.760;2023-08-20T03:05:07;4.10;;;2.33;;
20671;SDS011;10495;50.922;4.760;2023-08-20T03:07:35;3.00;;;1.77;;
20671;SDS011;10495;50.922;4.760;2023-08-20T03:10:00;3.13;;;2.17;;
20671;SDS011;10495;50.922;4.760;2023-08-20T03:12:27;4.30;;;2.20;;
20671;SDS011;10495;50.922;4.760;2023-08-20T03:14:53;3.33;;;2.10;;
20671;SDS011;10495;50.922;4.760;2023-08-20T03:17:19;3.67;;;2.10;;
20671;SDS011;10495;50.922;4.760;2023-08-20T03:19:54;4.73;;;2.20;;
20671;SDS011;10495;50.922;4.760;2023-08-20T03:22:22;2.53;;;1.90;;
20671;SDS011;10495;50.922;4.760;2023-08-20T03:24:48;5.15;;;2.60;;
20671;SDS011;10495;50.922;4.760;2023-08-20T03:27:15;2.60;;;1.80;;
20671;SDS011;10495;50.922;4.760;2023-08-20T03:29:41;2.63;;;1.90;;
20671;SDS011;10495;50.922;4.760;2023-08-20T03:32:06;4.17;;;1.77;;
20671;SDS011;10495;50.922;4.760;2023-08-20T03:34:32;3.20;;;1.83;;
20671;SDS011;10495;50.922;4.760;2023-08-20T03:36:58;3.97;;;2.30;;
20671;SDS011;10495;50.922;4.760;2023-08-20T03:39:23;3.03;;;1.80;;
20671;SDS011;10495;50.922;4.760;2023-08-20T03:41:50;4.87;;;2.33;;
20671;SDS011;10495;50.922;4.760;2023-08-20T03:44:16;2.20;;;1.60;;
20671;SDS011;10495;50.922;4.760;2023-08-20T03:46:42;1.97;;;1.37;;
20671;SDS011;10495;50.922;4.760;2023-08-20T03:49:08;2.17;;;1.83;;
20671;SDS011;10495;50.922;4.760;2023-08-20T03:51:33;1.43;;;1.33;;
20671;SDS011;10495;50.922;4.760;2023-08-20T03:53:59;2.60;;;1.77;;
20671;SDS011;10495;50.922;4.760;2023-08-20T03:56:25;2.33;;;1.60;;
20671;SDS011;10495;50.922;4.760;2023-08-20T03:58:50;1.30;;;1.20;;
20671;SDS011;10495;50.922;4.760;2023-08-20T04:01:17;4.60;;;1.80;;
20671;SDS011;10495;50.922;4.760;2023-08-20T04:03:43;2.73;;;1.50;;
20671;SDS011;10495;50.922;4.760;2023-08-20T04:06:11;2.73;;;1.97;;
20671;SDS011;10495;50.922;4.760;2023-08-20T04:08:36;3.70;;;2.10;;
20671;SDS011;10495;50.922;4.760;2023-08-20T04:11:02;4.00;;;1.87;;
20671;SDS011;10495;50.922;4.760;2023-08-20T04:13:28;3.87;;;1.97;;
20671;SDS011;10495;50.922;4.760;2023-08-20T04:15:55;3.13;;;1.90;;
20671;SDS011;10495;50.922;4.760;2023-08-20T04:18:21;4.77;;;2.17;;
20671;SDS011;10495;50.922;4.760;2023-08-20T04:20:47;2.10;;;1.80;;
20671;SDS011;10495;50.922;4.760;2023-08-20T04:23:16;2.63;;;2.03;;
20671;SDS011;10495;50.922;4.760;2023-08-20T04:25:41;1.97;;;1.50;;
20671;SDS011;10495;50.922;4.760;2023-08-20T04:28:07;3.20;;;1.70;;
20671;SDS011;10495;50.922;4.760;2023-08-20T04:30:34;2.90;;;1.73;;
20671;SDS011;10495;50.922;4.760;2023-08-20T04:33:00;4.13;;;1.80;;
20671;SDS011;10495;50.922;4.760;2023-08-20T04:35:26;5.17;;;2.20;;
20671;SDS011;10495;50.922;4.760;2023-08-20T04:37:51;4.50;;;1.70;;
20671;SDS011;10495;50.922;4.760;2023-08-20T04:40:17;2.73;;;2.00;;
20671;SDS011;10495;50.922;4.760;2023-08-20T04:42:43;2.30;;;1.70;;
20671;SDS011;10495;50.922;4.760;2023-08-20T04:45:08;2.83;;;2.10;;
20671;SDS011;10495;50.922;4.760;2023-08-20T04:47:35;2.43;;;1.83;;
20671;SDS011;10495;50.922;4.760;2023-08-20T04:50:01;3.77;;;2.00;;
20671;SDS011;10495;50.922;4.760;2023-08-20T04:52:27;4.70;;;2.40;;
20671;SDS011;10495;50.922;4.760;2023-08-20T04:54:53;5.10;;;2.10;;
20671;SDS011;10495;50.922;4.760;2023-08-20T04:57:18;3.17;;;1.87;;
20671;SDS011;10495;50.922;4.760;2023-08-20T04:59:44;5.53;;;2.13;;
20671;SDS011;10495;50.922;4.760;2023-08-20T05:02:10;6.67;;;2.70;;
20671;SDS011;10495;50.922;4.760;2023-08-20T05:04:37;5.53;;;3.10;;
20671;SDS011;10495;50.922;4.760;2023-08-20T05:07:03;4.60;;;2.47;;
20671;SDS011;10495;50.922;4.760;2023-08-20T05:09:29;4.07;;;2.40;;
20671;SDS011;10495;50.922;4.760;2023-08-20T05:11:55;2.77;;;1.90;;
20671;SDS011;10495;50.922;4.760;2023-08-20T05:14:20;3.07;;;1.73;;
20671;SDS011;10495;50.922;4.760;2023-08-20T05:16:46;5.10;;;2.60;;
20671;SDS011;10495;50.922;4.760;2023-08-20T05:19:11;3.50;;;2.30;;
20671;SDS011;10495;50.922;4.760;2023-08-20T05:21:37;4.00;;;2.10;;
20671;SDS011;10495;50.922;4.760;2023-08-20T05:24:03;3.97;;;1.97;;
20671;SDS011;10495;50.922;4.760;2023-08-20T05:26:29;5.27;;;2.27;;
20671;SDS011;10495;50.922;4.760;2023-08-20T05:28:54;2.43;;;1.70;;
20671;SDS011;10495;50.922;4.760;2023-08-20T05:31:20;4.00;;;1.80;;
20671;SDS011;10495;50.922;4.760;2023-08-20T05:33:46;2.00;;;1.70;;
20671;SDS011;10495;50.922;4.760;2023-08-20T05:36:11;3.10;;;1.97;;
20671;SDS011;10495;50.922;4.760;2023-08-20T05:38:37;6.13;;;2.70;;
20671;SDS011;10495;50.922;4.760;2023-08-20T05:41:03;4.77;;;2.20;;
20671;SDS011;10495;50.922;4.760;2023-08-20T05:43:28;3.73;;;2.10;;
20671;SDS011;10495;50.922;4.760;2023-08-20T05:45:54;2.70;;;2.00;;
20671;SDS011;10495;50.922;4.760;2023-08-20T05:48:20;4.80;;;2.20;;
20671;SDS011;10495;50.922;4.760;2023-08-20T05:50:45;4.53;;;2.23;;
20671;SDS011;10495;50.922;4.760;2023-08-20T05:53:11;4.57;;;2.13;;
20671;SDS011;10495;50.922;4.760;2023-08-20T05:55:37;4.87;;;2.60;;
20671;SDS011;10495;50.922;4.760;2023-08-20T05:58:03;3.30;;;2.20;;
20671;SDS011;10495;50.922;4.760;2023-08-20T06:00:28;5.60;;;2.10;;
20671;SDS011;10495;50.922;4.760;2023-08-20T06:02:54;3.10;;;2.80;;
20671;SDS011;10495;50.922;4.760;2023-08-20T06:05:20;4.33;;;1.97;;
20671;SDS011;10495;50.922;4.760;2023-08-20T06:07:45;5.70;;;2.53;;
20671;SDS011;10495;50.922;4.760;2023-08-20T06:10:11;9.10;;;2.15;;
20671;SDS011;10495;50.922;4.760;2023-08-20T06:12:37;3.83;;;2.08;;
20671;SDS011;10495;50.922;4.760;2023-08-20T06:15:03;4.97;;;1.95;;
20671;SDS011;10495;50.922;4.760;2023-08-20T06:17:30;4.97;;;2.25;;
20671;SDS011;10495;50.922;4.760;2023-08-20T06:19:55;3.35;;;1.98;;
20671;SDS011;10495;50.922;4.760;2023-08-20T06:22:21;3.53;;;1.85;;
20671;SDS011;10495;50.922;4.760;2023-08-20T06:24:46;6.32;;;2.17;;
20671;SDS011;10495;50.922;4.760;2023-08-20T06:27:12;7.22;;;2.15;;
20671;SDS011;10495;50.922;4.760;2023-08-20T06:29:38;3.92;;;1.83;;
20671;SDS011;10495;50.922;4.760;2023-08-20T06:32:04;5.03;;;2.10;;
20671;SDS011;10495;50.922;4.760;2023-08-20T06:34:29;4.78;;;2.22;;
20671;SDS011;10495;50.922;4.760;2023-08-20T06:36:55;4.72;;;2.35;;
20671;SDS011;10495;50.922;4.760;2023-08-20T06:39:21;5.97;;;2.13;;
20671;SDS011;10495;50.922;4.760;2023-08-20T06:41:47;6.15;;;2.45;;
20671;SDS011;10495;50.922;4.760;2023-08-20T06:44:12;5.13;;;2.05;;
20671;SDS011;10495;50.922;4.760;2023-08-20T06:46:38;4.10;;;2.08;;
20671;SDS011;10495;50.922;4.760;2023-08-20T06:49:04;6.38;;;2.13;;
20671;SDS011;10495;50.922;4.760;2023-08-20T06:51:29;3.95;;;2.00;;
20671;SDS011;10495;50.922;4.760;2023-08-20T06:53:55;3.65;;;1.92;;
20671;SDS011;10495;50.922;4.760;2023-08-20T06:56:21;4.85;;;2.25;;
20671;SDS011;10495;50.922;4.760;2023-08-20T06:58:47;5.97;;;1.65;;
20671;SDS011;10495;50.922;4.760;2023-08-20T07:01:12;6.50;;;1.92;;
20671;SDS011;10495;50.922;4.760;2023-08-20T07:06:05;2.58;;;1.60;;
20671;SDS011;10495;50.922;4.760;2023-08-20T07:08:31;5.70;;;1.90;;
20671;SDS011;10495;50.922;4.760;2023-08-20T07:10:56;6.93;;;2.33;;
20671;SDS011;10495;50.922;4.760;2023-08-20T07:13:23;4.78;;;2.10;;
20671;SDS011;10495;50.922;4.760;2023-08-20T07:15:49;5.57;;;2.08;;
20671;SDS011;10495;50.922;4.760;2023-08-20T07:18:15;4.60;;;2.03;;
20671;SDS011;10495;50.922;4.760;2023-08-20T07:20:41;5.93;;;1.80;;
20671;SDS011;10495;50.922;4.760;2023-08-20T07:23:08;6.38;;;1.92;;
20671;SDS011;10495;50.922;4.760;2023-08-20T07:25:35;5.50;;;2.20;;
20671;SDS011;10495;50.922;4.760;2023-08-20T07:28:02;6.05;;;1.83;;
20671;SDS011;10495;50.922;4.760;2023-08-20T07:30:29;6.15;;;1.92;;
20671;SDS011;10495;50.922;4.760;2023-08-20T07:32:55;7.13;;;2.00;;
20671;SDS011;10495;50.922;4.760;2023-08-20T07:35:21;4.57;;;1.67;;
20671;SDS011;10495;50.922;4.760;2023-08-20T07:37:46;3.90;;;1.80;;
20671;SDS011;10495;50.922;4.760;2023-08-20T07:40:12;5.88;;;1.77;;
20671;SDS011;10495;50.922;4.760;2023-08-20T07:42:39;3.03;;;1.70;;
20671;SDS011;10495;50.922;4.760;2023-08-20T07:45:05;4.32;;;1.27;;
20671;SDS011;10495;50.922;4.760;2023-08-20T07:47:32;4.00;;;1.55;;
20671;SDS011;10495;50.922;4.760;2023-08-20T07:49:58;4.95;;;1.45;;
20671;SDS011;10495;50.922;4.760;2023-08-20T07:52:24;3.25;;;1.20;;
20671;SDS011;10495;50.922;4.760;2023-08-20T07:54:49;2.75;;;1.42;;
20671;SDS011;10495;50.922;4.760;2023-08-20T07:57:15;4.90;;;1.52;;
20671;SDS011;10495;50.922;4.760;2023-08-20T07:59:41;3.85;;;1.33;;
20671;SDS011;10495;50.922;4.760;2023-08-20T08:02:06;4.63;;;1.50;;
20671;SDS011;10495;50.922;4.760;2023-08-20T08:04:33;2.35;;;1.20;;
20671;SDS011;10495;50.922;4.760;2023-08-20T08:06:59;3.35;;;1.10;;
20671;SDS011;10495;50.922;4.760;2023-08-20T08:09:29;2.42;;;1.35;;
20671;SDS011;10495;50.922;4.760;2023-08-20T08:11:56;2.58;;;1.20;;
20671;SDS011;10495;50.922;4.760;2023-08-20T08:14:23;4.47;;;1.50;;
20671;SDS011;10495;50.922;4.760;2023-08-20T08:16:49;3.55;;;1.30;;
20671;SDS011;10495;50.922;4.760;2023-08-20T08:19:15;2.55;;;0.98;;
20671;SDS011;10495;50.922;4.760;2023-08-20T08:21:41;3.67;;;1.60;;
20671;SDS011;10495;50.922;4.760;2023-08-20T08:24:08;4.50;;;1.40;;
20671;SDS011;10495;50.922;4.760;2023-08-20T08:26:35;3.08;;;1.30;;
20671;SDS011;10495;50.922;4.760;2023-08-20T08:29:02;3.40;;;1.58;;
20671;SDS011;10495;50.922;4.760;2023-08-20T08:31:28;2.42;;;1.10;;
20671;SDS011;10495;50.922;4.760;2023-08-20T08:33:54;5.55;;;1.77;;
20671;SDS011;10495;50.922;4.760;2023-08-20T08:36:20;5.22;;;1.73;;
20671;SDS011;10495;50.922;4.760;2023-08-20T08:38:46;2.67;;;1.30;;
20671;SDS011;10495;50.922;4.760;2023-08-20T08:41:12;5.57;;;1.58;;
20671;SDS011;10495;50.922;4.760;2023-08-20T08:43:38;3.42;;;1.83;;
20671;SDS011;10495;50.922;4.760;2023-08-20T08:46:11;6.25;;;2.95;;
20671;SDS011;10495;50.922;4.760;2023-08-20T08:48:44;6.00;;;2.42;;
20671;SDS011;10495;50.922;4.760;2023-08-20T08:51:11;4.40;;;2.00;;
20671;SDS011;10495;50.922;4.760;2023-08-20T08:53:38;5.75;;;2.22;;
20671;SDS011;10495;50.922;4.760;2023-08-20T08:56:04;2.53;;;1.60;;
20671;SDS011;10495;50.922;4.760;2023-08-20T08:58:33;4.70;;;1.80;;
20671;SDS011;10495;50.922;4.760;2023-08-20T09:00:59;4.40;;;1.58;;
20671;SDS011;10495;50.922;4.760;2023-08-20T09:03:25;3.55;;;1.70;;
20671;SDS011;10495;50.922;4.760;2023-08-20T09:05:54;3.95;;;1.60;;
20671;SDS011;10495;50.922;4.760;2023-08-20T09:08:31;3.97;;;1.73;;
20671;SDS011;10495;50.922;4.760;2023-08-20T09:10:57;5.43;;;1.90;;
20671;SDS011;10495;50.922;4.760;2023-08-20T09:15:54;3.35;;;1.67;;
20671;SDS011;10495;50.922;4.760;2023-08-20T09:18:20;8.75;;;1.67;;
20671;SDS011;10495;50.922;4.760;2023-08-20T09:20:47;4.25;;;1.88;;
20671;SDS011;10495;50.922;4.760;2023-08-20T09:23:16;4.80;;;1.77;;
20671;SDS011;10495;50.922;4.760;2023-08-20T09:25:42;6.18;;;1.90;;
20671;SDS011;10495;50.922;4.760;2023-08-20T09:28:08;4.72;;;1.90;;
20671;SDS011;10495;50.922;4.760;2023-08-20T09:30:34;3.60;;;1.77;;
20671;SDS011;10495;50.922;4.760;2023-08-20T09:33:12;5.90;;;1.83;;
20671;SDS011;10495;50.922;4.760;2023-08-20T09:35:48;4.85;;;1.60;;
20671;SDS011;10495;50.922;4.760;2023-08-20T09:38:16;2.55;;;1.55;;
20671;SDS011;10495;50.922;4.760;2023-08-20T09:40:47;2.47;;;1.55;;
20671;SDS011;10495;50.922;4.760;2023-08-20T09:43:15;4.40;;;1.75;;
20671;SDS011;10495;50.922;4.760;2023-08-20T09:45:42;3.97;;;2.15;;
20671;SDS011;10495;50.922;4.760;2023-08-20T09:48:09;3.90;;;1.95;;
20671;SDS011;10495;50.922;4.760;2023-08-20T09:50:36;3.42;;;1.90;;
20671;SDS011;10495;50.922;4.760;2023-08-20T09:53:06;2.25;;;1.30;;
20671;SDS011;10495;50.922;4.760;2023-08-20T09:55:44;3.05;;;1.50;;
20671;SDS011;10495;50.922;4.760;2023-08-20T09:58:11;6.93;;;1.60;;
20671;SDS011;10495;50.922;4.760;2023-08-20T10:00:38;2.58;;;1.20;;
20671;SDS011;10495;50.922;4.760;2023-08-20T10:03:04;4.43;;;1.60;;
20671;SDS011;10495;50.922;4.760;2023-08-20T10:05:29;3.88;;;1.38;;
20671;SDS011;10495;50.922;4.760;2023-08-20T10:07:56;2.30;;;1.35;;
20671;SDS011;10495;50.922;4.760;2023-08-20T10:10:24;4.75;;;1.20;;
20671;SDS011;10495;50.922;4.760;2023-08-20T10:12:50;1.55;;;1.10;;
20671;SDS011;10495;50.922;4.760;2023-08-20T10:15:16;4.40;;;1.30;;
20671;SDS011;10495;50.922;4.760;2023-08-20T10:17:43;2.45;;;1.13;;
20671;SDS011;10495;50.922;4.760;2023-08-20T10:20:12;1.80;;;1.17;;
20671;SDS011;10495;50.922;4.760;2023-08-20T10:22:41;3.38;;;1.33;;
20671;SDS011;10495;50.922;4.760;2023-08-20T10:25:09;1.60;;;1.10;;
20671;SDS011;10495;50.922;4.760;2023-08-20T10:27:37;3.35;;;1.02;;
20671;SDS011;10495;50.922;4.760;2023-08-20T10:30:08;2.13;;;0.85;;
20671;SDS011;10495;50.922;4.760;2023-08-20T10:35:15;3.33;;;1.20;;
20671;SDS011;10495;50.922;4.760;2023-08-20T10:40:51;3.33;;;1.15;;
20671;SDS011;10495;50.922;4.760;2023-08-20T10:46:02;3.70;;;1.30;;
20671;SDS011;10495;50.922;4.760;2023-08-20T10:48:29;3.30;;;1.20;;
20671;SDS011;10495;50.922;4.760;2023-08-20T10:50:56;3.85;;;1.50;;
20671;SDS011;10495;50.922;4.760;2023-08-20T10:53:22;2.85;;;0.95;;
20671;SDS011;10495;50.922;4.760;2023-08-20T10:55:48;4.07;;;1.40;;
20671;SDS011;10495;50.922;4.760;2023-08-20T10:58:14;2.47;;;0.90;;
20671;SDS011;10495;50.922;4.760;2023-08-20T11:00:41;2.00;;;1.02;;
20671;SDS011;10495;50.922;4.760;2023-08-20T11:03:07;3.13;;;1.25;;
20671;SDS011;10495;50.922;4.760;2023-08-20T11:05:33;4.13;;;1.40;;
20671;SDS011;10495;50.922;4.760;2023-08-20T11:07:59;3.47;;;1.40;;
20671;SDS011;10495;50.922;4.760;2023-08-20T11:10:28;2.53;;;1.20;;
20671;SDS011;10495;50.922;4.760;2023-08-20T11:12:54;3.35;;;2.05;;
20671;SDS011;10495;50.922;4.760;2023-08-20T11:15:19;2.90;;;1.38;;
20671;SDS011;10495;50.922;4.760;2023-08-20T11:17:46;6.05;;;1.50;;
20671;SDS011;10495;50.922;4.760;2023-08-20T11:20:15;2.95;;;1.70;;
20671;SDS011;10495;50.922;4.760;2023-08-20T11:22:41;1.42;;;1.20;;
20671;SDS011;10495;50.922;4.760;2023-08-20T11:25:10;4.25;;;1.60;;
20671;SDS011;10495;50.922;4.760;2023-08-20T11:27:41;5.28;;;1.42;;
20671;SDS011;10495;50.922;4.760;2023-08-20T11:30:09;1.77;;;1.15;;
20671;SDS011;10495;50.922;4.760;2023-08-20T11:32:37;1.67;;;1.23;;
20671;SDS011;10495;50.922;4.760;2023-08-20T11:35:03;3.60;;;1.63;;
20671;SDS011;10495;50.922;4.760;2023-08-20T11:37:30;3.33;;;1.33;;
20671;SDS011;10495;50.922;4.760;2023-08-20T11:39:55;2.45;;;1.52;;
20671;SDS011;10495;50.922;4.760;2023-08-20T11:42:21;2.83;;;1.55;;
20671;SDS011;10495;50.922;4.760;2023-08-20T11:44:48;3.35;;;1.77;;
20671;SDS011;10495;50.922;4.760;2023-08-20T11:47:17;4.40;;;1.80;;
20671;SDS011;10495;50.922;4.760;2023-08-20T11:49:43;4.53;;;1.42;;
20671;SDS011;10495;50.922;4.760;2023-08-20T11:52:09;3.22;;;1.42;;
20671;SDS011;10495;50.922;4.760;2023-08-20T11:54:36;4.95;;;1.55;;
20671;SDS011;10495;50.922;4.760;2023-08-20T11:57:02;5.05;;;1.95;;
20671;SDS011;10495;50.922;4.760;2023-08-20T11:59:29;2.55;;;1.33;;
20671;SDS011;10495;50.922;4.760;2023-08-20T12:01:56;4.65;;;1.77;;
20671;SDS011;10495;50.922;4.760;2023-08-20T12:04:26;3.67;;;1.52;;
20671;SDS011;10495;50.922;4.760;2023-08-20T12:07:09;3.35;;;1.65;;
20671;SDS011;10495;50.922;4.760;2023-08-20T12:09:38;3.83;;;1.70;;
20671;SDS011;10495;50.922;4.760;2023-08-20T12:12:05;4.55;;;1.58;;
20671;SDS011;10495;50.922;4.760;2023-08-20T12:14:32;3.15;;;1.30;;
20671;SDS011;10495;50.922;4.760;2023-08-20T12:16:57;2.25;;;1.45;;
20671;SDS011;10495;50.922;4.760;2023-08-20T12:19:23;1.48;;;1.23;;
20671;SDS011;10495;50.922;4.760;2023-08-20T12:21:49;4.00;;;1.45;;
20671;SDS011;10495;50.922;4.760;2023-08-20T12:24:15;1.30;;;1.10;;
20671;SDS011;10495;50.922;4.760;2023-08-20T12:26:41;4.60;;;1.95;;
20671;SDS011;10495;50.922;4.760;2023-08-20T12:29:07;4.22;;;1.63;;
20671;SDS011;10495;50.922;4.760;2023-08-20T12:31:33;3.78;;;1.50;;
20671;SDS011;10495;50.922;4.760;2023-08-20T12:33:59;2.88;;;1.58;;
20671;SDS011;10495;50.922;4.760;2023-08-20T12:36:26;2.22;;;1.17;;
20671;SDS011;10495;50.922;4.760;2023-08-20T12:38:52;2.83;;;1.70;;
20671;SDS011;10495;50.922;4.760;2023-08-20T12:41:18;5.53;;;1.45;;
20671;SDS011;10495;50.922;4.760;2023-08-20T12:43:44;2.70;;;1.45;;
20671;SDS011;10495;50.922;4.760;2023-08-20T12:46:10;3.05;;;1.35;;
20671;SDS011;10495;50.922;4.760;2023-08-20T12:48:37;5.65;;;1.50;;
20671;SDS011;10495;50.922;4.760;2023-08-20T12:51:02;3.88;;;1.42;;
20671;SDS011;10495;50.922;4.760;2023-08-20T12:53:28;4.57;;;1.55;;
20671;SDS011;10495;50.922;4.760;2023-08-20T12:55:54;4.65;;;1.48;;
20671;SDS011;10495;50.922;4.760;2023-08-20T12:58:19;4.63;;;1.70;;
20671;SDS011;10495;50.922;4.760;2023-08-20T13:00:45;4.25;;;1.60;;
20671;SDS011;10495;50.922;4.760;2023-08-20T13:03:11;3.10;;;1.40;;
20671;SDS011;10495;50.922;4.760;2023-08-20T13:05:38;5.55;;;1.70;;
20671;SDS011;10495;50.922;4.760;2023-08-20T13:08:03;7.30;;;1.77;;
20671;SDS011;10495;50.922;4.760;2023-08-20T13:10:29;3.67;;;1.45;;
20671;SDS011;10495;50.922;4.760;2023-08-20T13:12:56;4.05;;;1.45;;
20671;SDS011;10495;50.922;4.760;2023-08-20T13:15:28;3.22;;;1.45;;
20671;SDS011;10495;50.922;4.760;2023-08-20T13:17:54;4.43;;;1.50;;
20671;SDS011;10495;50.922;4.760;2023-08-20T13:20:20;3.20;;;1.40;;
20671;SDS011;10495;50.922;4.760;2023-08-20T13:22:49;2.45;;;1.55;;
20671;SDS011;10495;50.922;4.760;2023-08-20T13:25:15;2.58;;;1.42;;
20671;SDS011;10495;50.922;4.760;2023-08-20T13:27:41;4.45;;;1.50;;
20671;SDS011;10495;50.922;4.760;2023-08-20T13:30:07;2.47;;;1.27;;
20671;SDS011;10495;50.922;4.760;2023-08-20T13:32:33;3.90;;;1.85;;
20671;SDS011;10495;50.922;4.760;2023-08-20T13:34:59;2.42;;;1.40;;
20671;SDS011;10495;50.922;4.760;2023-08-20T13:37:25;2.55;;;1.25;;
20671;SDS011;10495;50.922;4.760;2023-08-20T13:39:51;4.88;;;1.45;;
20671;SDS011;10495;50.922;4.760;2023-08-20T13:42:16;2.13;;;1.40;;
20671;SDS011;10495;50.922;4.760;2023-08-20T13:44:42;4.70;;;2.05;;
20671;SDS011;10495;50.922;4.760;2023-08-20T13:47:08;2.80;;;1.65;;
20671;SDS011;10495;50.922;4.760;2023-08-20T13:49:34;3.80;;;1.60;;
20671;SDS011;10495;50.922;4.760;2023-08-20T13:51:59;2.25;;;1.20;;
20671;SDS011;10495;50.922;4.760;2023-08-20T13:54:25;2.53;;;1.55;;
20671;SDS011;10495;50.922;4.760;2023-08-20T13:56:51;3.17;;;1.20;;
20671;SDS011;10495;50.922;4.760;2023-08-20T13:59:16;2.78;;;1.35;;
20671;SDS011;10495;50.922;4.760;2023-08-20T14:01:42;2.33;;;1.30;;
20671;SDS011;10495;50.922;4.760;2023-08-20T14:04:08;1.92;;;1.20;;
20671;SDS011;10495;50.922;4.760;2023-08-20T14:06:33;7.88;;;1.60;;
20671;SDS011;10495;50.922;4.760;2023-08-20T14:08:59;2.20;;;1.30;;
20671;SDS011;10495;50.922;4.760;2023-08-20T14:11:26;3.60;;;1.58;;
20671;SDS011;10495;50.922;4.760;2023-08-20T14:13:51;4.22;;;1.50;;
20671;SDS011;10495;50.922;4.760;2023-08-20T14:16:17;4.55;;;1.75;;
20671;SDS011;10495;50.922;4.760;2023-08-20T14:18:42;3.33;;;1.48;;
20671;SDS011;10495;50.922;4.760;2023-08-20T14:21:08;2.42;;;1.27;;
20671;SDS011;10495;50.922;4.760;2023-08-20T14:23:34;2.53;;;1.48;;
20671;SDS011;10495;50.922;4.760;2023-08-20T14:26:00;4.88;;;1.80;;
20671;SDS011;10495;50.922;4.760;2023-08-20T14:28:26;2.53;;;1.40;;
20671;SDS011;10495;50.922;4.760;2023-08-20T14:30:51;3.90;;;1.33;;
20671;SDS011;10495;50.922;4.760;2023-08-20T14:33:19;4.40;;;1.55;;
20671;SDS011;10495;50.922;4.760;2023-08-20T14:35:46;2.80;;;1.48;;
20671;SDS011;10495;50.922;4.760;2023-08-20T14:38:12;3.20;;;1.55;;
20671;SDS011;10495;50.922;4.760;2023-08-20T14:40:39;2.60;;;1.52;;
20671;SDS011;10495;50.922;4.760;2023-08-20T14:43:05;4.68;;;1.80;;
20671;SDS011;10495;50.922;4.760;2023-08-20T14:45:34;3.47;;;1.60;;
20671;SDS011;10495;50.922;4.760;2023-08-20T14:48:00;4.63;;;1.48;;
20671;SDS011;10495;50.922;4.760;2023-08-20T14:50:25;4.72;;;1.55;;
20671;SDS011;10495;50.922;4.760;2023-08-20T14:52:51;4.05;;;1.55;;
20671;SDS011;10495;50.922;4.760;2023-08-20T14:55:18;4.03;;;1.60;;
20671;SDS011;10495;50.922;4.760;2023-08-20T14:57:44;4.82;;;1.60;;
20671;SDS011;10495;50.922;4.760;2023-08-20T15:00:10;2.15;;;1.70;;
20671;SDS011;10495;50.922;4.760;2023-08-20T15:02:41;5.43;;;1.58;;
20671;SDS011;10495;50.922;4.760;2023-08-20T15:05:08;2.33;;;1.30;;
20671;SDS011;10495;50.922;4.760;2023-08-20T15:07:35;4.63;;;1.55;;